Time;durP1;ratioP1;P1;durP2;ratioP2;P2;SDS_P1;SDS_P2;PMS_P1;PMS_P2;Temp;Humidity;BMP_temperature;BMP_pressure;BME280_temperature;BME280_humidity;BME280_pressure;Samples;Min_cycle;Max_cycle;Signal;HPM_P1;HPM_P2
2023/01/30 00:02:02;;;;;;;8.80;6.20;;;;;;;;;;5019941;28;20506;-58
2023/01/30 00:04:27;;;;;;;10.53;7.10;;;;;;;;;;4971944;28;20297;-55
2023/01/30 00:06:52;;;;;;;10.30;6.97;;;;;;;;;;4988402;28;20352;-59
2023/01/30 00:09:17;;;;;;;9.07;6.30;;;;;;;;;;4969259;28;20363;-60
2023/01/30 00:11:43;;;;;;;10.10;7.27;;;;;;;;;;4985008;28;20046;-60
2023/01/30 00:14:08;;;;;;;9.75;6.80;;;;;;;;;;4968554;28;20716;-57
2023/01/30 00:16:34;;;;;;;9.23;6.43;;;;;;;;;;4952543;28;20512;-58
2023/01/30 00:18:59;;;;;;;8.43;6.57;;;;;;;;;;4988741;28;20269;-59
2023/01/30 00:21:24;;;;;;;8.80;6.63;;;;;;;;;;5005345;28;20053;-57
2023/01/30 00:23:49;;;;;;;9.17;6.63;;;;;;;;;;4987881;28;20803;-60
2023/01/30 00:26:15;;;;;;;8.93;6.57;;;;;;;;;;5004054;28;20661;-56
2023/01/30 00:28:40;;;;;;;10.13;6.60;;;;;;;;;;4987780;28;20080;-56
2023/01/30 00:31:06;;;;;;;8.82;6.60;;;;;;;;;;5001597;28;20021;-59
2023/01/30 00:33:31;;;;;;;8.50;6.43;;;;;;;;;;4986878;28;20026;-57
2023/01/30 00:35:56;;;;;;;10.07;6.23;;;;;;;;;;4987299;28;20042;-56
2023/01/30 00:38:21;;;;;;;8.40;6.37;;;;;;;;;;4984888;28;20741;-57
2023/01/30 00:40:47;;;;;;;8.77;6.28;;;;;;;;;;4986008;28;20391;-58
2023/01/30 00:48:40;;;;;;;9.57;6.78;;;;;;;;;;4984481;28;20056;-57
2023/01/30 00:51:05;;;;;;;8.95;6.60;;;;;;;;;;4984799;28;20554;-57
2023/01/30 00:53:31;;;;;;;9.23;6.73;;;;;;;;;;4967969;28;20475;-59
2023/01/30 00:55:56;;;;;;;9.23;6.40;;;;;;;;;;4964544;28;20296;-60
2023/01/30 00:58:21;;;;;;;9.50;7.00;;;;;;;;;;4995149;28;20137;-60
2023/01/30 01:00:47;;;;;;;9.20;6.90;;;;;;;;;;4964601;28;20855;-58
2023/01/30 01:03:12;;;;;;;9.65;6.53;;;;;;;;;;4989949;28;20494;-55
2023/01/30 01:05:37;;;;;;;8.80;6.53;;;;;;;;;;4970826;28;20042;-57
2023/01/30 01:08:02;;;;;;;9.23;6.60;;;;;;;;;;4987092;28;20391;-60
2023/01/30 01:10:28;;;;;;;9.43;6.70;;;;;;;;;;4987547;28;20273;-58
2023/01/30 01:12:53;;;;;;;10.27;7.00;;;;;;;;;;4970425;28;20049;-57
2023/01/30 01:15:19;;;;;;;9.33;6.60;;;;;;;;;;4971045;28;20038;-59
2023/01/30 01:17:44;;;;;;;10.32;7.18;;;;;;;;;;4987276;28;20276;-57
2023/01/30 01:20:09;;;;;;;9.82;6.93;;;;;;;;;;5003308;28;20528;-57
2023/01/30 01:22:35;;;;;;;9.43;6.68;;;;;;;;;;4987439;28;20670;-55
2023/01/30 01:25:00;;;;;;;8.40;6.40;;;;;;;;;;5004765;28;20804;-56
2023/01/30 01:27:25;;;;;;;8.67;6.33;;;;;;;;;;4987031;28;21098;-57
2023/01/30 01:29:50;;;;;;;8.83;6.27;;;;;;;;;;5004684;28;20289;-57
2023/01/30 01:32:16;;;;;;;9.23;6.70;;;;;;;;;;4970604;28;20300;-58
2023/01/30 01:34:41;;;;;;;9.50;6.53;;;;;;;;;;4986648;28;20297;-56
2023/01/30 01:37:06;;;;;;;9.43;6.60;;;;;;;;;;4970069;28;20287;-58
2023/01/30 01:42:15;;;;;;;9.13;6.45;;;;;;;;;;4990260;28;20112;-59
2023/01/30 01:44:59;;;;;;;9.93;7.00;;;;;;;;;;5005685;28;20042;-60
2023/01/30 01:47:25;;;;;;;9.10;6.68;;;;;;;;;;5004206;28;20041;-57
2023/01/30 01:49:50;;;;;;;8.98;6.65;;;;;;;;;;4986349;28;20096;-56
2023/01/30 01:52:15;;;;;;;8.83;6.50;;;;;;;;;;4970222;28;20119;-58
2023/01/30 01:54:42;;;;;;;9.70;6.90;;;;;;;;;;4970071;28;20360;-58
2023/01/30 01:57:10;;;;;;;9.18;6.60;;;;;;;;;;5002407;28;20057;-58
2023/01/30 01:59:43;;;;;;;9.43;6.53;;;;;;;;;;4970444;28;20514;-59
2023/01/30 02:02:09;;;;;;;8.30;6.13;;;;;;;;;;4969210;28;20058;-58
2023/01/30 02:07:18;;;;;;;9.50;6.68;;;;;;;;;;5016527;28;20088;-59
2023/01/30 02:09:44;;;;;;;9.45;6.50;;;;;;;;;;4986176;28;20042;-58
2023/01/30 02:12:09;;;;;;;8.80;6.30;;;;;;;;;;4970317;28;20068;-58
2023/01/30 02:14:34;;;;;;;8.40;6.00;;;;;;;;;;4986252;28;20053;-56
2023/01/30 02:16:59;;;;;;;8.90;6.27;;;;;;;;;;4986441;28;20841;-58
2023/01/30 02:19:31;;;;;;;9.07;6.47;;;;;;;;;;4967039;28;20290;-55
2023/01/30 02:21:56;;;;;;;9.85;6.78;;;;;;;;;;5003371;28;20281;-57
2023/01/30 02:24:34;;;;;;;9.30;6.60;;;;;;;;;;5003430;28;20195;-59
2023/01/30 02:27:16;;;;;;;9.32;6.85;;;;;;;;;;5002490;28;21127;-57
2023/01/30 02:29:56;;;;;;;9.32;6.25;;;;;;;;;;5002765;28;20050;-58
2023/01/30 02:32:33;;;;;;;9.55;6.65;;;;;;;;;;4988413;28;20070;-59
2023/01/30 02:35:09;;;;;;;8.80;6.15;;;;;;;;;;4964903;28;20129;-58
2023/01/30 02:37:34;;;;;;;9.73;6.75;;;;;;;;;;4963647;28;20440;-58
2023/01/30 02:40:29;;;;;;;8.97;6.70;;;;;;;;;;4968829;28;20181;-57
2023/01/30 02:42:58;;;;;;;8.98;6.43;;;;;;;;;;4955598;28;20046;-58
2023/01/30 02:45:23;;;;;;;8.45;6.03;;;;;;;;;;4987874;28;20502;-57
2023/01/30 02:48:01;;;;;;;8.40;6.35;;;;;;;;;;4969882;28;20100;-59
2023/01/30 02:50:32;;;;;;;8.88;6.28;;;;;;;;;;4988020;28;20494;-57
2023/01/30 02:52:57;;;;;;;8.52;6.35;;;;;;;;;;4985946;28;20131;-59
2023/01/30 02:55:23;;;;;;;10.10;6.37;;;;;;;;;;5002027;28;20122;-58
2023/01/30 02:57:48;;;;;;;9.32;6.50;;;;;;;;;;4987684;28;20716;-57
2023/01/30 03:00:15;;;;;;;8.88;6.18;;;;;;;;;;4969063;28;20038;-61
2023/01/30 03:02:43;;;;;;;9.00;6.18;;;;;;;;;;4986057;28;20057;-57
2023/01/30 03:05:20;;;;;;;8.55;6.20;;;;;;;;;;4987206;28;20046;-57
2023/01/30 03:07:46;;;;;;;8.23;5.68;;;;;;;;;;4987400;28;20501;-58
2023/01/30 03:10:16;;;;;;;8.13;5.75;;;;;;;;;;4987439;28;20066;-56
2023/01/30 03:12:41;;;;;;;;;;;;;;;;;;4953926;28;20121;-56
2023/01/30 03:15:11;;;;;;;8.85;6.40;;;;;;;;;;4987031;28;20012;-59
2023/01/30 03:17:36;;;;;;;7.43;5.75;;;;;;;;;;4985908;28;20041;-59
2023/01/30 03:20:01;;;;;;;8.00;5.73;;;;;;;;;;4969505;28;20498;-56
2023/01/30 03:22:26;;;;;;;9.15;6.25;;;;;;;;;;4953606;28;20290;-58
2023/01/30 03:24:52;;;;;;;8.68;6.40;;;;;;;;;;4969134;28;20042;-58
2023/01/30 03:27:17;;;;;;;8.07;5.88;;;;;;;;;;4969630;28;20039;-57
2023/01/30 03:29:42;;;;;;;8.53;5.97;;;;;;;;;;4953007;28;20023;-57
2023/01/30 03:32:07;;;;;;;8.65;6.40;;;;;;;;;;4953732;28;20286;-59
2023/01/30 03:34:33;;;;;;;8.83;6.10;;;;;;;;;;4953037;28;20050;-59
2023/01/30 03:36:58;;;;;;;7.63;5.55;;;;;;;;;;4952404;28;20324;-58
2023/01/30 03:39:23;;;;;;;7.33;5.73;;;;;;;;;;4969016;28;20065;-60
2023/01/30 03:41:49;;;;;;;8.07;5.43;;;;;;;;;;4953237;28;20495;-61
2023/01/30 03:44:14;;;;;;;8.98;6.28;;;;;;;;;;4953007;28;20426;-58
2023/01/30 03:46:39;;;;;;;7.53;5.83;;;;;;;;;;4969043;28;20459;-57
2023/01/30 03:49:04;;;;;;;7.67;5.43;;;;;;;;;;4987020;28;20308;-57
2023/01/30 03:51:30;;;;;;;8.25;5.88;;;;;;;;;;4969063;28;20281;-55
2023/01/30 03:53:55;;;;;;;9.57;6.23;;;;;;;;;;4986195;28;20038;-58
2023/01/30 03:56:20;;;;;;;7.53;5.90;;;;;;;;;;4952345;28;20447;-57
2023/01/30 03:58:45;;;;;;;6.93;5.20;;;;;;;;;;4968775;28;20038;-56
2023/01/30 04:01:11;;;;;;;7.70;5.93;;;;;;;;;;4951369;28;20301;-58
2023/01/30 04:03:36;;;;;;;8.43;6.33;;;;;;;;;;4968592;28;20273;-58
2023/01/30 04:06:01;;;;;;;8.30;5.90;;;;;;;;;;4985661;28;20284;-57
2023/01/30 04:08:26;;;;;;;7.63;5.65;;;;;;;;;;4968114;28;20296;-57
2023/01/30 04:10:52;;;;;;;7.70;5.47;;;;;;;;;;4968770;28;20129;-59
2023/01/30 04:13:17;;;;;;;7.23;5.43;;;;;;;;;;4968628;28;20757;-58
2023/01/30 04:15:42;;;;;;;7.73;5.53;;;;;;;;;;4968482;28;20709;-58
2023/01/30 04:18:07;;;;;;;8.83;5.60;;;;;;;;;;4986634;28;20685;-58
2023/01/30 04:20:32;;;;;;;7.53;5.40;;;;;;;;;;4969368;28;20416;-58
2023/01/30 04:22:58;;;;;;;7.07;5.00;;;;;;;;;;4968353;28;20285;-59
2023/01/30 04:25:23;;;;;;;7.80;5.83;;;;;;;;;;4986326;28;20031;-58
2023/01/30 04:27:48;;;;;;;8.13;5.37;;;;;;;;;;4952037;28;20923;-58
2023/01/30 04:30:13;;;;;;;7.50;5.35;;;;;;;;;;4968228;28;20290;-58
2023/01/30 04:32:39;;;;;;;8.05;5.60;;;;;;;;;;4968184;28;20463;-59
2023/01/30 04:35:04;;;;;;;7.90;5.83;;;;;;;;;;4951837;28;20438;-56
2023/01/30 04:37:30;;;;;;;7.00;5.15;;;;;;;;;;4952038;28;20365;-57
2023/01/30 04:39:55;;;;;;;7.00;4.93;;;;;;;;;;4952332;28;20061;-57
2023/01/30 04:42:21;;;;;;;7.85;5.32;;;;;;;;;;4985006;28;20048;-58
2023/01/30 04:44:47;;;;;;;6.30;4.85;;;;;;;;;;4985286;28;20038;-59
2023/01/30 04:47:12;;;;;;;7.57;5.43;;;;;;;;;;4967520;28;20031;-59
2023/01/30 04:49:37;;;;;;;7.57;5.30;;;;;;;;;;4950711;28;20289;-59
2023/01/30 04:52:02;;;;;;;8.10;5.50;;;;;;;;;;4967659;28;20419;-58
2023/01/30 04:54:28;;;;;;;7.28;4.82;;;;;;;;;;4967956;28;20277;-61
2023/01/30 04:56:53;;;;;;;7.10;4.97;;;;;;;;;;4951510;28;20120;-58
2023/01/30 04:59:18;;;;;;;6.83;4.87;;;;;;;;;;4966303;28;20741;-56
2023/01/30 05:01:43;;;;;;;6.77;4.93;;;;;;;;;;4982192;28;20513;-58
2023/01/30 05:04:09;;;;;;;7.55;5.22;;;;;;;;;;4967833;28;20300;-60
2023/01/30 05:06:35;;;;;;;13.25;5.43;;;;;;;;;;4967649;28;20050;-55
2023/01/30 05:09:00;;;;;;;8.48;5.50;;;;;;;;;;4950532;28;20093;-57
2023/01/30 05:11:26;;;;;;;10.40;5.17;;;;;;;;;;4966722;28;20041;-59
2023/01/30 05:13:51;;;;;;;8.68;5.50;;;;;;;;;;4974414;28;20268;-59
2023/01/30 05:16:17;;;;;;;9.25;5.18;;;;;;;;;;4983656;28;20528;-59
2023/01/30 05:18:42;;;;;;;13.90;5.53;;;;;;;;;;4967522;28;20048;-58
2023/01/30 05:21:09;;;;;;;10.25;5.25;;;;;;;;;;4965829;28;20046;-57
2023/01/30 05:23:34;;;;;;;8.82;5.15;;;;;;;;;;4967976;28;20014;-58
2023/01/30 05:25:59;;;;;;;9.03;4.80;;;;;;;;;;4983649;28;20109;-57
2023/01/30 05:28:25;;;;;;;8.27;4.95;;;;;;;;;;4966834;28;20770;-58
2023/01/30 05:30:50;;;;;;;8.30;5.03;;;;;;;;;;4965454;28;20015;-57
2023/01/30 05:33:15;;;;;;;7.70;5.30;;;;;;;;;;4966961;28;20088;-57
2023/01/30 05:35:47;;;;;;;11.55;5.45;;;;;;;;;;4966388;28;20277;-58
2023/01/30 05:38:12;;;;;;;8.32;4.93;;;;;;;;;;4946253;28;20458;-57
2023/01/30 05:40:37;;;;;;;9.27;5.10;;;;;;;;;;4964474;28;20045;-57
2023/01/30 05:43:02;;;;;;;10.27;5.43;;;;;;;;;;4965086;28;20057;-59
2023/01/30 05:45:28;;;;;;;7.17;4.53;;;;;;;;;;4963312;28;20465;-58
2023/01/30 05:47:53;;;;;;;12.50;6.00;;;;;;;;;;4982343;28;20265;-61
2023/01/30 05:50:18;;;;;;;9.23;4.70;;;;;;;;;;4998323;28;20270;-60
2023/01/30 05:52:44;;;;;;;10.70;5.38;;;;;;;;;;4983889;28;20022;-59
2023/01/30 05:55:09;;;;;;;11.05;5.30;;;;;;;;;;4981860;28;20524;-60
2023/01/30 05:57:34;;;;;;;10.90;4.77;;;;;;;;;;4999599;28;20526;-61
2023/01/30 05:59:59;;;;;;;14.00;5.37;;;;;;;;;;4961310;28;20656;-58
2023/01/30 06:02:24;;;;;;;11.43;4.97;;;;;;;;;;4982644;28;20270;-57
2023/01/30 06:04:50;;;;;;;12.57;5.43;;;;;;;;;;4964963;28;20281;-59
2023/01/30 06:07:15;;;;;;;12.70;5.97;;;;;;;;;;5000344;28;20264;-59
2023/01/30 06:09:40;;;;;;;14.87;5.33;;;;;;;;;;4984248;28;20405;-58
2023/01/30 06:12:05;;;;;;;11.73;5.17;;;;;;;;;;4966587;28;20608;-58
2023/01/30 06:14:31;;;;;;;13.70;5.13;;;;;;;;;;4983868;28;20479;-57
2023/01/30 06:16:56;;;;;;;11.80;5.07;;;;;;;;;;4982261;28;20489;-55
2023/01/30 06:19:21;;;;;;;13.27;5.40;;;;;;;;;;4963762;28;20738;-57
2023/01/30 06:21:46;;;;;;;14.10;5.73;;;;;;;;;;4947649;28;20365;-56
2023/01/30 06:24:12;;;;;;;15.27;5.70;;;;;;;;;;4963644;28;20261;-59
2023/01/30 06:26:37;;;;;;;11.47;5.20;;;;;;;;;;4963390;28;20278;-56
2023/01/30 06:29:02;;;;;;;11.93;5.67;;;;;;;;;;4980823;28;20828;-56
2023/01/30 06:31:27;;;;;;;12.65;5.85;;;;;;;;;;4964607;28;20253;-59
2023/01/30 06:33:53;;;;;;;10.67;5.20;;;;;;;;;;4949366;28;20018;-58
2023/01/30 06:36:18;;;;;;;11.40;5.23;;;;;;;;;;4983352;28;20638;-56
2023/01/30 06:38:43;;;;;;;13.73;5.23;;;;;;;;;;4984310;28;20267;-59
2023/01/30 06:41:08;;;;;;;12.57;5.60;;;;;;;;;;4967187;28;20056;-58
2023/01/30 06:43:33;;;;;;;16.08;5.82;;;;;;;;;;4982842;28;20410;-59
2023/01/30 06:45:59;;;;;;;10.37;5.60;;;;;;;;;;4983359;28;20042;-57
2023/01/30 06:48:24;;;;;;;14.07;5.80;;;;;;;;;;4984733;28;20364;-58
2023/01/30 06:50:49;;;;;;;10.73;5.50;;;;;;;;;;4967712;28;20340;-57
2023/01/30 06:53:14;;;;;;;12.43;5.53;;;;;;;;;;4984012;28;20049;-55
2023/01/30 06:55:40;;;;;;;12.50;5.55;;;;;;;;;;4985111;28;20030;-58
2023/01/30 06:58:05;;;;;;;17.90;6.20;;;;;;;;;;4984302;28;20422;-55
2023/01/30 07:00:30;;;;;;;10.77;5.23;;;;;;;;;;4998439;28;20426;-56
2023/01/30 07:02:55;;;;;;;14.30;5.95;;;;;;;;;;4984578;28;20327;-57
2023/01/30 07:05:21;;;;;;;9.60;5.03;;;;;;;;;;4984483;28;20027;-58
2023/01/30 07:07:46;;;;;;;9.07;4.87;;;;;;;;;;4984635;28;20038;-58
2023/01/30 07:10:11;;;;;;;12.30;5.63;;;;;;;;;;4984916;28;20276;-57
2023/01/30 07:12:36;;;;;;;10.83;5.90;;;;;;;;;;4988098;28;20130;-57
2023/01/30 07:15:02;;;;;;;12.47;5.40;;;;;;;;;;4986518;28;20328;-57
2023/01/30 07:17:27;;;;;;;11.48;5.90;;;;;;;;;;4987744;28;20278;-55
2023/01/30 07:19:53;;;;;;;12.20;5.90;;;;;;;;;;4986299;28;20046;-57
2023/01/30 07:22:18;;;;;;;9.57;5.15;;;;;;;;;;4987423;28;20351;-56
2023/01/30 07:24:43;;;;;;;9.00;5.43;;;;;;;;;;4986769;28;20034;-57
2023/01/30 07:27:09;;;;;;;10.93;5.50;;;;;;;;;;4987667;28;20627;-56
2023/01/30 07:29:34;;;;;;;11.30;5.10;;;;;;;;;;4987824;28;20266;-57
2023/01/30 07:31:59;;;;;;;8.20;5.15;;;;;;;;;;4985786;28;20045;-56
2023/01/30 07:34:25;;;;;;;9.27;5.13;;;;;;;;;;4989134;28;20423;-56
2023/01/30 07:36:50;;;;;;;10.03;4.93;;;;;;;;;;5007264;28;20525;-57
2023/01/30 07:39:15;;;;;;;8.37;5.10;;;;;;;;;;5006921;28;20284;-56
2023/01/30 07:41:40;;;;;;;14.87;5.90;;;;;;;;;;5020598;28;20284;-56
2023/01/30 07:44:06;;;;;;;12.03;5.43;;;;;;;;;;5005149;28;20265;-56
2023/01/30 07:46:33;;;;;;;10.95;5.28;;;;;;;;;;5006546;28;20034;-56
2023/01/30 07:49:02;;;;;;;11.07;5.50;;;;;;;;;;5007413;28;20057;-59
2023/01/30 07:51:27;;;;;;;9.52;5.40;;;;;;;;;;4972560;28;20041;-59
2023/01/30 07:53:53;;;;;;;12.53;5.70;;;;;;;;;;4988874;28;20030;-57
2023/01/30 07:56:19;;;;;;;10.47;5.33;;;;;;;;;;5006473;28;20293;-57
2023/01/30 07:58:44;;;;;;;11.30;5.63;;;;;;;;;;5006483;28;20393;-59
2023/01/30 08:01:10;;;;;;;10.77;5.50;;;;;;;;;;5007298;28;20497;-58
2023/01/30 08:03:35;;;;;;;10.13;5.10;;;;;;;;;;4988738;28;20482;-58
2023/01/30 08:06:00;;;;;;;8.97;5.30;;;;;;;;;;5021825;28;20036;-58
2023/01/30 08:08:25;;;;;;;10.27;6.07;;;;;;;;;;5004852;28;20343;-56
2023/01/30 08:10:50;;;;;;;10.77;5.63;;;;;;;;;;5005912;28;20824;-56
2023/01/30 08:13:16;;;;;;;9.70;5.97;;;;;;;;;;4988149;28;20422;-57
2023/01/30 08:15:41;;;;;;;9.57;6.20;;;;;;;;;;4985669;28;20041;-56
2023/01/30 08:18:06;;;;;;;10.10;5.20;;;;;;;;;;5003570;28;20022;-57
2023/01/30 08:20:31;;;;;;;9.83;5.77;;;;;;;;;;5003492;28;20085;-56
2023/01/30 08:22:57;;;;;;;10.73;6.03;;;;;;;;;;5004090;28;20350;-56
2023/01/30 08:25:22;;;;;;;10.38;5.63;;;;;;;;;;5004159;28;20289;-56
2023/01/30 08:27:47;;;;;;;9.90;5.67;;;;;;;;;;5005652;28;20044;-56
2023/01/30 08:30:13;;;;;;;10.25;5.82;;;;;;;;;;5006424;28;20707;-56
2023/01/30 08:32:38;;;;;;;9.10;5.70;;;;;;;;;;5005774;28;20037;-55
2023/01/30 08:35:03;;;;;;;10.33;5.93;;;;;;;;;;4988361;28;20053;-57
2023/01/30 08:37:28;;;;;;;16.40;6.35;;;;;;;;;;4982176;28;20918;-58
2023/01/30 08:39:54;;;;;;;11.23;6.30;;;;;;;;;;4974943;28;20057;-59
2023/01/30 08:42:19;;;;;;;10.50;6.07;;;;;;;;;;4999815;28;20038;-59
2023/01/30 08:44:44;;;;;;;12.90;6.33;;;;;;;;;;4971358;28;20048;-58
2023/01/30 08:47:09;;;;;;;12.17;6.80;;;;;;;;;;5005456;28;20092;-57
2023/01/30 08:49:35;;;;;;;12.53;6.50;;;;;;;;;;4987444;28;20364;-62
2023/01/30 08:52:00;;;;;;;12.23;6.40;;;;;;;;;;5005423;28;20796;-58
2023/01/30 08:54:25;;;;;;;10.23;6.37;;;;;;;;;;5004780;28;20301;-56
2023/01/30 08:56:50;;;;;;;11.48;6.20;;;;;;;;;;5005363;28;20280;-55
2023/01/30 08:59:16;;;;;;;11.03;6.27;;;;;;;;;;4984672;28;20042;-57
2023/01/30 09:01:41;;;;;;;12.00;6.97;;;;;;;;;;5004306;28;20053;-58
2023/01/30 09:04:06;;;;;;;11.90;7.33;;;;;;;;;;4999636;28;20036;-56
2023/01/30 09:06:31;;;;;;;11.67;7.17;;;;;;;;;;5001442;28;20816;-56
2023/01/30 09:08:57;;;;;;;11.47;6.80;;;;;;;;;;5002064;28;20299;-56
2023/01/30 09:11:22;;;;;;;12.70;7.38;;;;;;;;;;5002905;28;20037;-57
2023/01/30 09:13:48;;;;;;;13.60;7.70;;;;;;;;;;5001567;28;20414;-57
2023/01/30 09:16:13;;;;;;;13.37;8.03;;;;;;;;;;5003003;28;20042;-57
2023/01/30 09:18:39;;;;;;;13.17;8.63;;;;;;;;;;5002580;28;20038;-58
2023/01/30 09:21:04;;;;;;;14.30;8.23;;;;;;;;;;5004475;28;20423;-57
2023/01/30 09:23:30;;;;;;;13.40;8.75;;;;;;;;;;5002697;28;20037;-55
2023/01/30 09:25:55;;;;;;;14.53;9.13;;;;;;;;;;5001697;28;20045;-59
2023/01/30 09:28:20;;;;;;;13.57;8.63;;;;;;;;;;4980790;28;20272;-58
2023/01/30 09:30:45;;;;;;;13.17;8.83;;;;;;;;;;5003872;28;20217;-56
2023/01/30 09:33:11;;;;;;;14.80;9.63;;;;;;;;;;4986648;28;20050;-58
2023/01/30 09:35:36;;;;;;;16.00;9.00;;;;;;;;;;4989309;28;20855;-58
2023/01/30 09:38:03;;;;;;;15.70;10.30;;;;;;;;;;4965491;28;20374;-59
2023/01/30 09:40:28;;;;;;;16.63;10.38;;;;;;;;;;4983049;28;20297;-60
2023/01/30 09:42:56;;;;;;;14.48;10.20;;;;;;;;;;4964900;28;20132;-57
2023/01/30 09:45:21;;;;;;;14.48;10.20;;;;;;;;;;4983004;28;20037;-57
2023/01/30 09:47:47;;;;;;;17.40;11.00;;;;;;;;;;4984942;28;20042;-58
2023/01/30 09:50:19;;;;;;;16.10;10.48;;;;;;;;;;4983201;28;20045;-58
2023/01/30 09:52:56;;;;;;;18.63;11.23;;;;;;;;;;4984695;28;20133;-61
2023/01/30 09:55:28;;;;;;;15.85;11.57;;;;;;;;;;4987977;28;20042;-57
2023/01/30 09:57:54;;;;;;;17.58;11.40;;;;;;;;;;4966439;28;20034;-57
2023/01/30 10:00:22;;;;;;;16.75;11.60;;;;;;;;;;4982700;28;20046;-59
2023/01/30 10:02:52;;;;;;;22.92;12.68;;;;;;;;;;4984996;28;20062;-57
2023/01/30 10:05:18;;;;;;;18.63;12.75;;;;;;;;;;4983093;28;20042;-57
2023/01/30 10:08:16;;;;;;;17.55;12.73;;;;;;;;;;4983510;28;20053;-58
2023/01/30 10:10:46;;;;;;;18.67;11.90;;;;;;;;;;4956703;28;20108;-58
2023/01/30 10:13:11;;;;;;;;;;;;;;;;;;4981652;28;20151;-58
2023/01/30 10:15:39;;;;;;;14.93;11.03;;;;;;;;;;4981284;28;19918;-58
2023/01/30 10:18:23;;;;;;;17.10;11.70;;;;;;;;;;4997094;28;20058;-53
2023/01/30 10:21:02;;;;;;;18.88;12.70;;;;;;;;;;4980580;28;20034;-58
2023/01/30 10:23:30;;;;;;;18.17;11.73;;;;;;;;;;4983133;28;20149;-59
2023/01/30 10:25:57;;;;;;;16.42;11.80;;;;;;;;;;4984394;28;20074;-60
2023/01/30 10:28:25;;;;;;;16.30;11.95;;;;;;;;;;4980569;28;20049;-62
2023/01/30 10:30:51;;;;;;;16.95;12.10;;;;;;;;;;4963788;28;20035;-57
2023/01/30 10:33:18;;;;;;;17.80;12.45;;;;;;;;;;4962722;28;20114;-57
2023/01/30 10:35:43;;;;;;;18.08;12.45;;;;;;;;;;4964863;28;20066;-59
2023/01/30 10:38:11;;;;;;;17.70;11.77;;;;;;;;;;4965961;28;20065;-60
2023/01/30 10:40:38;;;;;;;17.15;11.82;;;;;;;;;;4983469;28;20328;-58
2023/01/30 10:43:10;;;;;;;16.80;12.05;;;;;;;;;;4964199;28;20112;-56
2023/01/30 10:45:45;;;;;;;18.27;12.27;;;;;;;;;;4994910;28;20038;-60
2023/01/30 10:48:15;;;;;;;17.20;11.70;;;;;;;;;;4973694;28;20125;-57
2023/01/30 10:50:51;;;;;;;17.60;12.45;;;;;;;;;;5003679;28;20050;-57
2023/01/30 10:53:21;;;;;;;18.00;12.15;;;;;;;;;;4970070;28;20034;-58
2023/01/30 10:55:46;;;;;;;;;;;;;;;;;;4951448;28;20089;-56
2023/01/30 10:58:12;;;;;;;15.25;10.98;;;;;;;;;;4951320;28;19917;-59
2023/01/30 11:00:39;;;;;;;16.05;11.57;;;;;;;;;;4987041;28;20141;-61
2023/01/30 11:03:07;;;;;;;15.07;11.30;;;;;;;;;;4970412;28;20088;-61
2023/01/30 11:05:46;;;;;;;16.85;12.15;;;;;;;;;;4988023;28;20104;-56
2023/01/30 11:08:22;;;;;;;16.08;12.00;;;;;;;;;;4969496;28;20082;-57
2023/01/30 11:10:47;;;;;;;16.60;12.32;;;;;;;;;;4956607;28;20110;-61
2023/01/30 11:13:17;;;;;;;17.65;12.30;;;;;;;;;;4981942;28;20050;-59
2023/01/30 11:15:43;;;;;;;16.73;11.82;;;;;;;;;;4967746;28;20046;-59
2023/01/30 11:18:08;;;;;;;15.75;11.27;;;;;;;;;;4987078;28;20038;-57
2023/01/30 11:20:37;;;;;;;15.95;11.65;;;;;;;;;;4954163;28;20042;-57
2023/01/30 11:23:03;;;;;;;15.77;11.60;;;;;;;;;;4971140;28;20046;-61
2023/01/30 11:25:29;;;;;;;15.18;10.85;;;;;;;;;;4970109;28;20034;-60
2023/01/30 11:28:02;;;;;;;15.57;11.63;;;;;;;;;;4997927;28;20096;-60
2023/01/30 11:30:28;;;;;;;16.02;11.85;;;;;;;;;;4987739;28;20030;-60
2023/01/30 11:33:03;;;;;;;15.95;10.63;;;;;;;;;;4980828;28;20041;-60
2023/01/30 11:35:28;;;;;;;16.17;11.40;;;;;;;;;;4980552;28;20521;-61
2023/01/30 11:37:55;;;;;;;15.77;11.77;;;;;;;;;;5002987;28;20046;-60
2023/01/30 11:40:24;;;;;;;14.55;11.02;;;;;;;;;;4986046;28;20408;-60
2023/01/30 11:42:50;;;;;;;16.50;10.80;;;;;;;;;;4963081;28;20045;-57
2023/01/30 11:45:16;;;;;;;14.30;10.50;;;;;;;;;;4971461;28;20042;-59
2023/01/30 11:47:54;;;;;;;14.88;10.77;;;;;;;;;;4986817;28;20297;-60
2023/01/30 11:50:19;;;;;;;13.95;10.18;;;;;;;;;;5001910;28;20115;-60
2023/01/30 11:52:44;;;;;;;13.63;10.18;;;;;;;;;;4953232;28;20052;-60
2023/01/30 11:55:11;;;;;;;14.47;10.40;;;;;;;;;;4970086;28;20571;-56
2023/01/30 11:57:44;;;;;;;14.52;10.52;;;;;;;;;;4968893;28;20431;-60
2023/01/30 12:00:22;;;;;;;14.23;10.60;;;;;;;;;;4998866;28;20129;-59
2023/01/30 12:02:48;;;;;;;12.75;9.88;;;;;;;;;;4983026;28;20522;-58
2023/01/30 12:05:33;;;;;;;13.77;9.65;;;;;;;;;;4973635;28;20109;-60
2023/01/30 12:08:18;;;;;;;16.00;10.15;;;;;;;;;;4983954;28;20069;-59
2023/01/30 12:10:43;;;;;;;13.48;9.73;;;;;;;;;;4995704;28;20489;-60
2023/01/30 12:13:12;;;;;;;13.57;9.00;;;;;;;;;;4961250;28;20223;-61
2023/01/30 12:15:38;;;;;;;12.23;8.57;;;;;;;;;;4968130;28;20137;-58
2023/01/30 12:18:03;;;;;;;12.67;9.30;;;;;;;;;;4983936;28;20117;-59
2023/01/30 12:20:31;;;;;;;12.70;9.32;;;;;;;;;;4985865;28;20670;-58
2023/01/30 12:22:56;;;;;;;12.23;9.10;;;;;;;;;;4986097;28;20034;-61
2023/01/30 12:25:25;;;;;;;14.33;9.40;;;;;;;;;;4979478;28;20111;-59
2023/01/30 12:28:00;;;;;;;11.68;9.25;;;;;;;;;;5004062;28;20564;-58
2023/01/30 12:30:31;;;;;;;13.70;9.20;;;;;;;;;;4985143;28;20049;-58
2023/01/30 12:33:01;;;;;;;12.25;8.77;;;;;;;;;;4993197;28;20033;-60
2023/01/30 12:35:30;;;;;;;11.93;9.05;;;;;;;;;;4987273;28;20046;-56
2023/01/30 12:37:55;;;;;;;12.88;8.98;;;;;;;;;;4964693;28;20147;-59
2023/01/30 12:40:24;;;;;;;12.55;9.20;;;;;;;;;;4989680;28;20097;-58
2023/01/30 12:42:55;;;;;;;12.02;8.90;;;;;;;;;;4997220;28;20034;-60
2023/01/30 12:45:27;;;;;;;11.38;8.73;;;;;;;;;;4987177;28;20049;-60
2023/01/30 12:47:58;;;;;;;12.25;8.70;;;;;;;;;;4983697;28;20038;-60
2023/01/30 12:50:46;;;;;;;12.45;9.00;;;;;;;;;;4983707;28;20039;-61
2023/01/30 12:53:23;;;;;;;11.52;8.52;;;;;;;;;;4970444;28;20084;-59
2023/01/30 12:55:49;;;;;;;11.40;8.60;;;;;;;;;;4984886;28;20104;-57
2023/01/30 12:58:19;;;;;;;12.60;8.70;;;;;;;;;;5003174;28;20442;-58
2023/01/30 13:00:44;;;;;;;;;;;;;;;;;;5002985;28;20879;-60
2023/01/30 13:03:09;;;;;;;12.13;8.33;;;;;;;;;;5004850;28;20020;-60
2023/01/30 13:05:42;;;;;;;11.48;8.45;;;;;;;;;;5005762;28;20033;-57
2023/01/30 13:08:07;;;;;;;10.40;7.55;;;;;;;;;;5004075;28;20042;-61
2023/01/30 13:10:33;;;;;;;10.60;7.60;;;;;;;;;;5002183;28;20469;-62
2023/01/30 13:13:01;;;;;;;11.13;8.23;;;;;;;;;;5005209;28;20295;-55
2023/01/30 13:15:39;;;;;;;10.77;8.07;;;;;;;;;;5003122;28;20052;-63
2023/01/30 13:18:19;;;;;;;10.85;8.32;;;;;;;;;;5003325;28;20042;-60
2023/01/30 13:20:53;;;;;;;11.25;7.97;;;;;;;;;;5003431;28;20042;-61
2023/01/30 13:23:21;;;;;;;10.98;8.02;;;;;;;;;;4969328;28;20080;-59
2023/01/30 13:25:46;;;;;;;10.23;8.10;;;;;;;;;;5003408;28;20127;-59
2023/01/30 13:28:13;;;;;;;9.73;7.60;;;;;;;;;;5003220;28;20158;-58
2023/01/30 13:30:38;;;;;;;10.02;7.35;;;;;;;;;;4993650;28;20053;-56
2023/01/30 13:33:04;;;;;;;10.40;8.07;;;;;;;;;;4966658;28;20497;-57
2023/01/30 13:35:34;;;;;;;9.88;7.60;;;;;;;;;;4978693;28;20046;-56
2023/01/30 13:38:00;;;;;;;11.27;7.60;;;;;;;;;;4997463;28;20045;-55
2023/01/30 13:40:31;;;;;;;10.23;7.40;;;;;;;;;;4973677;28;20137;-62
2023/01/30 13:42:57;;;;;;;9.90;7.95;;;;;;;;;;4980223;28;20316;-65
2023/01/30 13:45:23;;;;;;;10.87;7.70;;;;;;;;;;5002246;28;20527;-58
2023/01/30 13:48:06;;;;;;;10.70;8.07;;;;;;;;;;5002440;28;20510;-59
2023/01/30 13:50:38;;;;;;;9.82;7.78;;;;;;;;;;5003124;28;20103;-58
2023/01/30 13:53:04;;;;;;;9.93;7.25;;;;;;;;;;5003972;28;20589;-62
2023/01/30 13:55:41;;;;;;;10.40;7.85;;;;;;;;;;4968667;28;20046;-59
2023/01/30 13:58:26;;;;;;;11.15;7.55;;;;;;;;;;5018678;28;20049;-61
2023/01/30 14:00:54;;;;;;;10.15;7.40;;;;;;;;;;4979689;28;20518;-59
2023/01/30 14:03:30;;;;;;;9.65;7.75;;;;;;;;;;4968800;28;20026;-60
2023/01/30 14:05:59;;;;;;;9.80;7.40;;;;;;;;;;5004019;28;20053;-60
2023/01/30 14:08:28;;;;;;;9.85;7.25;;;;;;;;;;5004244;28;20053;-58
2023/01/30 14:10:54;;;;;;;10.37;7.00;;;;;;;;;;4986510;28;20038;-60
2023/01/30 14:13:19;;;;;;;9.95;7.57;;;;;;;;;;4990700;28;20304;-60
2023/01/30 14:15:54;;;;;;;10.13;7.50;;;;;;;;;;4985540;28;20099;-57
2023/01/30 14:18:27;;;;;;;10.68;7.75;;;;;;;;;;4982596;28;20858;-59
2023/01/30 14:20:52;;;;;;;9.52;7.35;;;;;;;;;;4988039;28;20049;-59
2023/01/30 14:23:27;;;;;;;9.45;7.53;;;;;;;;;;4972548;28;20044;-59
2023/01/30 14:25:55;;;;;;;9.38;7.30;;;;;;;;;;4987293;28;20243;-60
2023/01/30 14:28:20;;;;;;;9.57;7.43;;;;;;;;;;4988446;28;20117;-60
2023/01/30 14:30:49;;;;;;;9.02;7.30;;;;;;;;;;5008399;28;20485;-57
2023/01/30 14:33:17;;;;;;;10.80;7.10;;;;;;;;;;4990469;28;20042;-58
2023/01/30 14:35:43;;;;;;;9.48;7.10;;;;;;;;;;4990010;28;20315;-56
2023/01/30 14:38:09;;;;;;;10.27;7.47;;;;;;;;;;4988671;28;20046;-60
2023/01/30 14:40:35;;;;;;;10.55;7.38;;;;;;;;;;5005231;28;20045;-60
2023/01/30 14:43:16;;;;;;;9.45;7.45;;;;;;;;;;5006751;28;20026;-57
2023/01/30 14:45:48;;;;;;;9.50;7.05;;;;;;;;;;5007264;28;20064;-60
2023/01/30 14:48:26;;;;;;;9.30;7.13;;;;;;;;;;5006983;28;20042;-60